createdAt,value
2018-01-13T00:00:30.464Z,27.40
2018-01-13T00:02:59.395Z,38.93
2018-01-13T00:05:27.492Z,34.47
2018-01-13T00:07:55.560Z,35.77
2018-01-13T00:10:24.392Z,32.13
2018-01-13T00:12:52.457Z,49.20
2018-01-13T00:15:20.510Z,39.33
2018-01-13T00:17:48.667Z,35.00
2018-01-13T00:20:16.806Z,42.47
2018-01-13T00:22:44.877Z,39.67
2018-01-13T00:25:12.925Z,49.93
2018-01-13T00:27:41.025Z,59.97
2018-01-13T00:30:09.101Z,46.53
2018-01-13T00:32:37.154Z,47.50
2018-01-13T00:35:07.025Z,46.88
2018-01-13T00:37:35.057Z,57.55
2018-01-13T00:40:03.119Z,51.17
2018-01-13T00:42:31.221Z,41.50
2018-01-13T00:44:59.288Z,55.87
2018-01-13T00:47:27.353Z,50.90
2018-01-13T00:49:55.408Z,54.10
2018-01-13T00:52:24.246Z,49.90
2018-01-13T00:54:52.325Z,51.30
2018-01-13T00:57:20.379Z,52.87
2018-01-13T00:59:48.433Z,57.40
2018-01-13T01:02:16.485Z,44.13
2018-01-13T01:04:44.640Z,47.13
2018-01-13T01:07:12.682Z,52.20
2018-01-13T01:09:40.809Z,47.33
2018-01-13T01:12:08.865Z,53.33
2018-01-13T01:14:36.925Z,54.90
2018-01-13T01:17:05.010Z,53.63
2018-01-13T01:19:33.705Z,52.00
2018-01-13T01:22:01.793Z,44.47
2018-01-13T01:24:30.976Z,49.90
2018-01-13T01:26:59.025Z,54.23
2018-01-13T01:29:27.129Z,49.30
2018-01-13T01:31:55.183Z,48.38
2018-01-13T01:34:23.289Z,47.38
2018-01-13T01:36:51.345Z,50.67
2018-01-13T01:39:19.441Z,61.20
2018-01-13T01:41:47.516Z,60.47
2018-01-13T01:44:15.585Z,56.03
2018-01-13T01:46:43.633Z,58.03
2018-01-13T01:49:11.704Z,46.07
2018-01-13T01:51:39.817Z,50.40
2018-01-13T01:54:07.893Z,60.27
2018-01-13T01:56:35.969Z,61.75
2018-01-13T01:59:04.763Z,53.43
2018-01-13T02:01:32.813Z,59.17
2018-01-13T02:04:01.650Z,57.58
2018-01-13T02:06:29.685Z,57.40
2018-01-13T02:08:57.781Z,53.27
2018-01-13T02:11:25.830Z,52.37
2018-01-13T02:13:53.889Z,63.80
2018-01-13T02:16:22.729Z,59.97
2018-01-13T02:18:50.805Z,61.33
2018-01-13T02:21:18.885Z,56.07
2018-01-13T02:23:46.945Z,59.33
2018-01-13T02:26:15.034Z,60.07
2018-01-13T02:28:43.114Z,59.63
2018-01-13T02:31:11.193Z,50.80
2018-01-13T02:33:39.367Z,74.93
2018-01-13T02:36:07.436Z,82.97
2018-01-13T02:38:35.487Z,68.50
2018-01-13T02:41:03.602Z,57.47
2018-01-13T02:43:31.985Z,61.90
2018-01-13T02:46:00.059Z,69.90
2018-01-13T02:48:28.122Z,53.67
2018-01-13T02:50:56.181Z,68.83
2018-01-13T02:53:24.238Z,74.83
2018-01-13T02:55:52.309Z,81.67
2018-01-13T02:58:21.162Z,67.37
2018-01-13T03:00:49.217Z,61.57
2018-01-13T03:03:17.265Z,74.00
2018-01-13T03:05:45.321Z,84.40
2018-01-13T03:08:14.178Z,65.60
2018-01-13T03:10:42.233Z,82.13
2018-01-13T03:13:10.286Z,70.47
2018-01-13T03:15:38.354Z,73.60
2018-01-13T03:18:07.196Z,68.90
2018-01-13T03:20:35.261Z,63.17
2018-01-13T03:23:03.310Z,78.20
2018-01-13T03:25:32.358Z,84.92
2018-01-13T03:28:00.416Z,74.80
2018-01-13T03:30:28.472Z,75.30
2018-01-13T03:32:56.524Z,78.17
2018-01-13T03:35:25.364Z,58.63
2018-01-13T03:37:53.441Z,66.97
2018-01-13T03:40:21.510Z,67.57
2018-01-13T03:42:49.834Z,73.27
2018-01-13T03:45:18.697Z,68.57
2018-01-13T03:47:46.746Z,69.80
2018-01-13T03:50:14.802Z,64.40
2018-01-13T03:52:43.336Z,65.57
2018-01-13T03:55:12.225Z,69.40
2018-01-13T03:57:40.302Z,69.60
2018-01-13T04:00:08.365Z,76.57
2018-01-13T04:02:36.465Z,78.83
2018-01-13T04:05:05.284Z,68.97
2018-01-13T04:07:34.058Z,75.20
2018-01-13T04:10:02.750Z,82.45
2018-01-13T04:12:30.912Z,65.43
2018-01-13T04:14:58.978Z,60.47
2018-01-13T04:17:27.062Z,70.63
2018-01-13T04:19:55.133Z,59.83
2018-01-13T04:22:23.208Z,71.53
2018-01-13T04:24:51.264Z,69.23
2018-01-13T04:27:19.321Z,75.10
2018-01-13T04:29:48.192Z,68.00
2018-01-13T04:32:16.205Z,75.77
2018-01-13T04:34:44.308Z,72.57
2018-01-13T04:37:12.356Z,63.37
2018-01-13T04:39:40.479Z,63.10
2018-01-13T04:42:08.681Z,60.37
2018-01-13T04:44:37.545Z,58.33
2018-01-13T04:47:05.621Z,53.63
2018-01-13T04:49:33.691Z,60.10
2018-01-13T04:52:01.770Z,64.63
2018-01-13T04:54:29.830Z,64.93
2018-01-13T04:56:57.937Z,62.53
2018-01-13T04:59:26.013Z,66.00
2018-01-13T05:01:54.057Z,69.77
2018-01-13T05:04:22.109Z,64.40
2018-01-13T05:06:50.177Z,59.37
2018-01-13T05:09:19.023Z,65.40
2018-01-13T05:11:47.097Z,69.27
2018-01-13T05:14:15.178Z,58.90
2018-01-13T05:16:43.250Z,77.00
2018-01-13T05:19:11.333Z,66.67
2018-01-13T05:21:39.502Z,77.63
2018-01-13T05:24:07.553Z,72.62
2018-01-13T05:26:35.617Z,76.50
2018-01-13T05:29:03.699Z,63.03
2018-01-13T05:31:31.805Z,63.07
2018-01-13T05:33:59.865Z,60.30
2018-01-13T05:36:28.582Z,77.83
2018-01-13T05:38:56.649Z,67.40
2018-01-13T05:41:24.721Z,64.93
2018-01-13T05:43:52.801Z,58.40
2018-01-13T05:46:20.873Z,61.97
2018-01-13T05:48:48.954Z,57.83
2018-01-13T05:51:17.037Z,71.62
2018-01-13T05:53:45.094Z,63.33
2018-01-13T05:56:13.181Z,61.20
2018-01-13T05:58:41.229Z,69.80
2018-01-13T06:01:09.297Z,61.27
2018-01-13T06:03:37.358Z,64.27
2018-01-13T06:06:06.189Z,61.43
2018-01-13T06:08:34.240Z,66.10
2018-01-13T06:11:02.329Z,55.97
2018-01-13T06:13:30.373Z,65.83
2018-01-13T06:15:58.922Z,59.83
2018-01-13T06:18:26.991Z,55.77
2018-01-13T06:20:55.073Z,55.50
2018-01-13T06:23:23.128Z,57.40
2018-01-13T06:25:51.234Z,62.00
2018-01-13T06:28:19.287Z,44.27
2018-01-13T06:30:47.354Z,61.93
2018-01-13T06:33:15.402Z,60.80
2018-01-13T06:35:44.250Z,48.90
2018-01-13T06:38:12.322Z,45.13
2018-01-13T06:40:40.385Z,56.03
2018-01-13T06:43:08.962Z,46.50
2018-01-13T06:45:37.053Z,57.27
2018-01-13T06:48:05.089Z,44.00
2018-01-13T06:50:35.037Z,53.60
2018-01-13T06:53:04.997Z,64.10
2018-01-13T06:55:33.061Z,55.60
2018-01-13T06:58:01.126Z,52.50
2018-01-13T07:00:29.193Z,44.90
2018-01-13T07:02:57.377Z,48.90
2018-01-13T07:05:25.438Z,47.67
2018-01-13T07:07:53.486Z,57.83
2018-01-13T07:10:22.325Z,50.27
2018-01-13T07:12:50.406Z,55.23
2018-01-13T07:15:18.470Z,58.03
2018-01-13T07:17:46.556Z,50.60
2018-01-13T07:20:14.625Z,51.57
2018-01-13T07:22:42.674Z,54.63
2018-01-13T07:25:10.731Z,60.97
2018-01-13T07:27:39.574Z,63.90
2018-01-13T07:30:07.623Z,58.37
2018-01-13T07:32:35.674Z,54.00
2018-01-13T07:35:05.654Z,52.67
2018-01-13T07:37:33.719Z,51.37
2018-01-13T07:40:01.806Z,56.70
2018-01-13T07:42:29.866Z,52.37
2018-01-13T07:44:57.924Z,51.80
2018-01-13T07:47:25.977Z,56.03
2018-01-13T07:52:21.053Z,45.13
2018-01-13T07:54:49.141Z,39.77
2018-01-13T07:57:17.317Z,45.20
2018-01-13T07:59:45.368Z,38.90
2018-01-13T08:02:13.432Z,42.43
2018-01-13T08:04:41.550Z,41.57
2018-01-13T08:07:09.609Z,38.92
2018-01-13T08:09:37.663Z,38.83
2018-01-13T08:12:05.777Z,36.60
2018-01-13T08:14:34.550Z,36.90
2018-01-13T08:17:02.621Z,37.30
2018-01-13T08:19:30.669Z,33.57
2018-01-13T08:21:59.514Z,37.00
2018-01-13T08:24:27.577Z,31.20
2018-01-13T08:26:55.641Z,37.23
2018-01-13T08:29:23.686Z,37.43
2018-01-13T08:31:52.533Z,43.50
2018-01-13T08:34:20.600Z,44.47
2018-01-13T08:36:48.661Z,42.40
2018-01-13T08:39:16.714Z,47.63
2018-01-13T08:41:44.837Z,43.77
2018-01-13T08:44:12.889Z,33.50
2018-01-13T08:46:40.954Z,39.10
2018-01-13T08:49:08.997Z,41.40
2018-01-13T08:51:37.065Z,38.37
2018-01-13T08:54:05.737Z,43.63
2018-01-13T08:56:33.906Z,36.20
2018-01-13T08:59:01.953Z,40.30
2018-01-13T09:01:30.451Z,42.87
2018-01-13T09:03:58.516Z,41.03
2018-01-13T09:06:26.621Z,34.67
2018-01-13T09:08:54.686Z,44.13
2018-01-13T09:11:22.733Z,37.00
2018-01-13T09:13:50.780Z,45.63
2018-01-13T09:16:19.646Z,44.60
2018-01-13T09:18:47.702Z,38.33
2018-01-13T09:21:15.789Z,50.27
2018-01-13T09:23:43.842Z,45.47
2018-01-13T09:26:11.921Z,43.30
2018-01-13T09:28:40.025Z,41.60
2018-01-13T09:31:08.106Z,44.73
2018-01-13T09:33:36.161Z,43.03
2018-01-13T09:36:04.248Z,45.27
2018-01-13T09:38:32.326Z,47.17
2018-01-13T09:41:00.413Z,45.03
2018-01-13T09:43:28.474Z,47.20
2018-01-13T09:45:56.526Z,45.13
2018-01-13T09:48:24.590Z,41.20
2018-01-13T09:50:52.646Z,46.53
2018-01-13T09:53:20.898Z,56.20
2018-01-13T09:55:48.961Z,45.63
2018-01-13T09:58:17.017Z,45.93
2018-01-13T10:00:45.121Z,49.23
2018-01-13T10:03:13.177Z,52.58
2018-01-13T10:05:41.238Z,50.17
2018-01-13T10:08:09.349Z,44.97
2018-01-13T10:10:37.410Z,47.57
2018-01-13T10:13:06.426Z,49.20
2018-01-13T10:15:34.478Z,58.37
2018-01-13T10:18:02.541Z,49.30
2018-01-13T10:20:30.653Z,45.97
2018-01-13T10:22:58.826Z,40.43
2018-01-13T10:25:26.894Z,39.93
2018-01-13T10:27:54.947Z,45.53
2018-01-13T10:30:22.993Z,42.43
2018-01-13T10:32:51.822Z,46.00
2018-01-13T10:35:19.880Z,33.43
2018-01-13T10:37:48.787Z,39.30
2018-01-13T10:40:16.901Z,43.50
2018-01-13T10:42:44.909Z,44.80
2018-01-13T10:45:13.761Z,40.67
2018-01-13T10:47:41.850Z,46.87
2018-01-13T10:50:09.897Z,43.40
2018-01-13T10:52:37.966Z,42.63
2018-01-13T10:55:06.901Z,45.90
2018-01-13T10:57:34.996Z,36.07
2018-01-13T11:00:03.153Z,48.27
2018-01-13T11:02:31.317Z,44.43
2018-01-13T11:04:59.389Z,41.73
2018-01-13T11:07:27.454Z,41.47
2018-01-13T11:09:55.555Z,37.83
2018-01-13T11:12:23.700Z,42.87
2018-01-13T11:14:51.809Z,44.90
2018-01-13T11:17:19.873Z,46.75
2018-01-13T11:19:47.957Z,47.62
2018-01-13T11:22:16.026Z,43.38
2018-01-13T11:24:45.034Z,35.80
2018-01-13T11:27:13.097Z,41.00
2018-01-13T11:29:41.939Z,44.10
2018-01-13T11:32:10.770Z,36.33
2018-01-13T11:34:38.839Z,46.50
2018-01-13T11:37:07.949Z,31.77
2018-01-13T11:39:37.131Z,43.00
2018-01-13T11:42:05.193Z,38.97
2018-01-13T11:44:34.014Z,40.17
2018-01-13T11:47:02.126Z,39.40
2018-01-13T11:49:30.182Z,30.10
2018-01-13T11:51:59.101Z,33.10
2018-01-13T11:54:27.158Z,32.60
2018-01-13T11:56:55.216Z,40.83
2018-01-13T11:59:23.390Z,33.73
2018-01-13T12:01:51.426Z,36.20
2018-01-13T12:04:19.490Z,37.87
2018-01-13T12:06:47.550Z,42.77
2018-01-13T12:09:15.614Z,35.17
2018-01-13T12:11:43.675Z,42.65
2018-01-13T12:14:11.762Z,46.25
2018-01-13T12:16:39.815Z,41.37
2018-01-13T12:19:07.862Z,40.60
2018-01-13T12:21:35.927Z,43.83
2018-01-13T12:24:03.990Z,30.23
2018-01-13T12:26:32.058Z,39.47
2018-01-13T12:29:00.142Z,41.77
2018-01-13T12:31:28.194Z,39.60
2018-01-13T12:33:56.281Z,42.77
2018-01-13T12:36:24.357Z,41.30
2018-01-13T12:38:52.738Z,34.83
2018-01-13T12:41:21.503Z,41.72
2018-01-13T12:43:49.561Z,44.25
2018-01-13T12:46:18.378Z,37.10
2018-01-13T12:48:46.477Z,39.60
2018-01-13T12:51:14.562Z,31.57
2018-01-13T12:53:42.637Z,30.00
2018-01-13T12:56:10.715Z,34.13
2018-01-13T12:58:38.898Z,37.07
2018-01-13T13:01:08.090Z,39.73
2018-01-13T13:03:36.154Z,35.50
2018-01-13T13:06:04.241Z,35.70
2018-01-13T13:08:32.316Z,34.23
2018-01-13T13:11:00.401Z,34.70
2018-01-13T13:13:28.471Z,37.63
2018-01-13T13:15:56.522Z,36.90
2018-01-13T13:18:24.591Z,44.10
2018-01-13T13:20:52.637Z,36.90
2018-01-13T13:23:21.477Z,34.00
2018-01-13T13:25:49.574Z,39.40
2018-01-13T13:28:17.632Z,49.40
2018-01-13T13:30:46.787Z,34.03
2018-01-13T13:33:14.837Z,40.83
2018-01-13T13:35:42.890Z,37.47
2018-01-13T13:38:10.974Z,33.17
2018-01-13T13:40:39.018Z,38.77
2018-01-13T13:43:08.306Z,36.03
2018-01-13T13:45:38.374Z,45.30
2018-01-13T13:48:06.437Z,38.37
2018-01-13T13:50:34.495Z,36.10
2018-01-13T13:53:02.613Z,40.20
2018-01-13T13:55:30.981Z,69.77
2018-01-13T13:57:59.062Z,36.13
2018-01-13T14:00:27.121Z,46.60
2018-01-13T14:02:55.209Z,38.50
2018-01-13T14:05:23.274Z,40.63
2018-01-13T14:07:52.200Z,38.87
2018-01-13T14:10:20.261Z,36.03
2018-01-13T14:12:48.313Z,41.77
2018-01-13T14:15:16.385Z,35.00
2018-01-13T14:17:44.489Z,40.00
2018-01-13T14:20:12.574Z,39.03
2018-01-13T14:22:41.565Z,32.38
2018-01-13T14:25:09.629Z,39.70
2018-01-13T14:27:38.789Z,44.10
2018-01-13T14:30:08.744Z,45.27
2018-01-13T14:32:36.846Z,44.80
2018-01-13T14:35:05.018Z,41.83
2018-01-13T14:37:33.077Z,38.70
2018-01-13T14:40:01.130Z,42.13
2018-01-13T14:42:29.192Z,44.80
2018-01-13T14:44:58.042Z,50.07
2018-01-13T14:47:26.109Z,38.97
2018-01-13T14:49:54.165Z,41.03
2018-01-13T14:52:22.226Z,36.88
2018-01-13T14:54:50.280Z,40.60
2018-01-13T14:57:18.363Z,40.73
2018-01-13T14:59:47.211Z,43.30
2018-01-13T15:02:15.701Z,44.40
2018-01-13T15:04:43.773Z,61.28
2018-01-13T15:07:11.822Z,39.00
2018-01-13T15:09:39.881Z,36.97
2018-01-13T15:12:09.129Z,37.90
2018-01-13T15:14:37.211Z,45.07
2018-01-13T15:17:05.273Z,34.50
2018-01-13T15:19:33.326Z,38.07
2018-01-13T15:22:01.390Z,46.27
2018-01-13T15:24:30.202Z,41.80
2018-01-13T15:26:58.261Z,37.35
2018-01-13T15:29:26.320Z,37.70
2018-01-13T15:31:55.181Z,50.70
2018-01-13T15:34:23.250Z,43.70
2018-01-13T15:36:51.325Z,37.33
2018-01-13T15:39:19.410Z,45.30
2018-01-13T15:41:47.469Z,42.83
2018-01-13T15:44:15.559Z,47.30
2018-01-13T15:46:43.745Z,57.77
2018-01-13T15:49:11.793Z,44.97
2018-01-13T15:51:39.882Z,48.97
2018-01-13T15:54:07.943Z,50.00
2018-01-13T15:56:36.025Z,46.63
2018-01-13T15:59:04.149Z,39.63
2018-01-13T16:01:32.214Z,41.50
2018-01-13T16:04:00.279Z,41.90
2018-01-13T16:06:28.932Z,47.40
2018-01-13T16:08:57.044Z,41.13
2018-01-13T16:11:25.127Z,41.57
2018-01-13T16:13:53.189Z,49.63
2018-01-13T16:16:21.375Z,48.13
2018-01-13T16:18:49.433Z,50.83
2018-01-13T16:21:18.158Z,57.30
2018-01-13T16:23:46.268Z,50.50
2018-01-13T16:26:15.070Z,41.30
2018-01-13T16:28:43.170Z,53.13
2018-01-13T16:31:11.218Z,39.37
2018-01-13T16:33:40.061Z,44.22
2018-01-13T16:36:08.122Z,51.63
2018-01-13T16:38:36.222Z,49.80
2018-01-13T16:41:04.270Z,46.20
2018-01-13T16:43:32.350Z,52.37
2018-01-13T16:46:00.422Z,60.07
2018-01-13T16:48:28.491Z,50.90
2018-01-13T16:50:56.552Z,57.88
2018-01-13T16:53:24.619Z,55.22
2018-01-13T16:55:52.665Z,49.95
2018-01-13T16:58:21.518Z,42.78
2018-01-13T17:00:49.607Z,39.83
2018-01-13T17:03:19.150Z,43.07
2018-01-13T17:05:49.143Z,44.77
2018-01-13T17:08:17.197Z,45.07
2018-01-13T17:10:45.250Z,42.27
2018-01-13T17:13:13.333Z,57.33
2018-01-13T17:15:41.418Z,41.43
2018-01-13T17:18:09.461Z,39.63
2018-01-13T17:20:38.297Z,36.70
2018-01-13T17:23:06.415Z,40.63
2018-01-13T17:25:34.470Z,35.10
2018-01-13T17:28:02.567Z,31.17
2018-01-13T17:30:30.655Z,42.13
2018-01-13T17:32:58.714Z,38.47
2018-01-13T17:35:26.870Z,32.43
2018-01-13T17:37:55.043Z,38.73
2018-01-13T17:40:23.122Z,32.50
2018-01-13T17:42:51.195Z,30.98
2018-01-13T17:45:19.278Z,30.70
2018-01-13T17:47:47.351Z,37.43
2018-01-13T17:50:15.423Z,36.53
2018-01-13T17:52:43.501Z,38.30
2018-01-13T17:55:11.957Z,36.87
2018-01-13T17:57:40.104Z,34.63
2018-01-13T18:00:08.999Z,44.27
2018-01-13T18:02:37.168Z,42.80
2018-01-13T18:05:05.205Z,45.13
2018-01-13T18:07:33.257Z,41.13
2018-01-13T18:10:01.357Z,43.60
2018-01-13T18:12:29.437Z,36.72
2018-01-13T18:14:57.566Z,60.17
2018-01-13T18:17:26.425Z,39.27
2018-01-13T18:19:54.551Z,45.88
2018-01-13T18:22:23.399Z,37.00
2018-01-13T18:24:51.458Z,48.20
2018-01-13T18:27:20.358Z,38.20
2018-01-13T18:29:49.557Z,34.90
2018-01-13T18:32:17.610Z,37.67
2018-01-13T18:34:45.724Z,45.17
2018-01-13T18:37:13.793Z,30.03
2018-01-13T18:39:41.896Z,36.40
2018-01-13T18:42:11.469Z,30.30
2018-01-13T18:44:39.545Z,35.63
2018-01-13T18:47:07.668Z,34.87
2018-01-13T18:49:35.847Z,33.38
2018-01-13T18:52:03.903Z,36.77
2018-01-13T18:54:32.116Z,41.33
2018-01-13T18:57:00.938Z,41.23
2018-01-13T18:59:29.080Z,48.00
2018-01-13T19:01:57.163Z,28.57
2018-01-13T19:04:26.052Z,41.30
2018-01-13T19:06:54.932Z,36.15
2018-01-13T19:09:22.978Z,36.47
2018-01-13T19:11:51.053Z,31.75
2018-01-13T19:14:20.049Z,27.35
2018-01-13T19:16:48.159Z,32.13
2018-01-13T19:19:16.248Z,32.90
2018-01-13T19:21:45.094Z,36.80
2018-01-13T19:24:13.224Z,42.47
2018-01-13T19:26:42.074Z,31.90
2018-01-13T19:29:10.184Z,26.95
2018-01-13T19:31:38.857Z,29.40
2018-01-13T19:34:07.060Z,28.77
2018-01-13T19:36:35.145Z,35.07
2018-01-13T19:39:03.978Z,25.87
2018-01-13T19:41:32.084Z,28.57
2018-01-13T19:44:00.179Z,24.57
2018-01-13T19:46:28.309Z,28.20
2018-01-13T19:48:56.420Z,30.47
2018-01-13T19:51:26.039Z,32.20
2018-01-13T19:53:54.897Z,36.43
2018-01-13T19:56:23.021Z,29.33
2018-01-13T19:58:51.913Z,25.00
2018-01-13T20:01:20.568Z,31.60
2018-01-13T20:03:48.685Z,26.43
2018-01-13T20:06:17.573Z,27.10
2018-01-13T20:08:46.440Z,25.10
2018-01-13T20:11:14.533Z,28.50
2018-01-13T20:13:42.732Z,30.33
2018-01-13T20:16:11.593Z,28.13
2018-01-13T20:18:39.649Z,22.87
2018-01-13T20:21:07.742Z,27.02
2018-01-13T20:23:37.298Z,19.43
2018-01-13T20:26:05.405Z,20.10
2018-01-13T20:28:34.218Z,26.50
2018-01-13T20:31:02.389Z,23.80
2018-01-13T20:33:30.536Z,32.20
2018-01-13T20:35:58.636Z,25.77
2018-01-13T20:38:26.753Z,23.70
2018-01-13T20:40:54.802Z,21.40
2018-01-13T20:43:22.921Z,24.98
2018-01-13T20:45:51.777Z,30.12
2018-01-13T20:48:21.735Z,21.07
2018-01-13T20:50:51.749Z,19.93
2018-01-13T20:53:21.048Z,20.00
2018-01-13T20:55:49.501Z,32.53
2018-01-13T20:58:17.601Z,27.63
2018-01-13T21:00:46.513Z,29.50
2018-01-13T21:03:15.360Z,30.17
2018-01-13T21:05:43.456Z,26.17
2018-01-13T21:08:11.548Z,27.80
2018-01-13T21:10:39.644Z,28.43
2018-01-13T21:13:08.528Z,23.83
2018-01-13T21:15:36.713Z,25.60
2018-01-13T21:18:05.914Z,25.67
2018-01-13T21:20:34.782Z,35.30
2018-01-13T21:23:02.869Z,28.90
2018-01-13T21:25:31.056Z,28.07
2018-01-13T21:27:59.915Z,24.42
2018-01-13T21:30:28.370Z,35.33
2018-01-13T21:32:56.461Z,25.00
2018-01-13T21:35:24.560Z,25.20
2018-01-13T21:37:52.664Z,22.47
2018-01-13T21:40:21.278Z,27.20
2018-01-13T21:42:51.245Z,28.83
2018-01-13T21:45:19.339Z,27.42
2018-01-13T21:47:48.268Z,32.30
2018-01-13T21:50:17.086Z,30.37
2018-01-13T21:52:45.193Z,22.92
2018-01-13T21:55:13.423Z,30.45
2018-01-13T21:57:42.904Z,25.70
2018-01-13T22:00:11.080Z,28.57
2018-01-13T22:02:39.173Z,26.17
2018-01-13T22:05:08.020Z,27.35
2018-01-13T22:07:36.086Z,24.10
2018-01-13T22:10:04.154Z,28.85
2018-01-13T22:12:32.261Z,27.20
2018-01-13T22:15:00.360Z,26.83
2018-01-13T22:17:28.552Z,26.93
2018-01-13T22:19:57.426Z,26.73
2018-01-13T22:22:26.274Z,30.08
2018-01-13T22:24:54.381Z,34.78
2018-01-13T22:27:22.472Z,26.87
2018-01-13T22:29:51.508Z,22.55
2018-01-13T22:32:19.617Z,33.53
2018-01-13T22:34:47.670Z,22.10
2018-01-13T22:37:15.780Z,31.63
2018-01-13T22:39:44.305Z,34.43
2018-01-13T22:42:13.425Z,40.43
2018-01-13T22:44:41.563Z,25.23
2018-01-13T22:47:09.612Z,31.07
2018-01-13T22:49:37.737Z,33.83
2018-01-13T22:52:06.629Z,34.30
2018-01-13T22:54:35.484Z,37.85
2018-01-13T22:57:03.588Z,35.00
2018-01-13T22:59:31.673Z,30.20
2018-01-13T23:02:00.535Z,34.40
2018-01-13T23:04:28.639Z,31.93
2018-01-13T23:06:56.746Z,32.70
2018-01-13T23:09:24.850Z,35.00
2018-01-13T23:11:52.969Z,38.87
2018-01-13T23:14:21.870Z,38.70
2018-01-13T23:16:51.862Z,35.53
2018-01-13T23:19:19.952Z,31.43
2018-01-13T23:21:48.056Z,22.83
2018-01-13T23:24:16.912Z,31.57
2018-01-13T23:26:44.972Z,30.77
2018-01-13T23:29:13.088Z,27.13
2018-01-13T23:31:41.223Z,27.63
2018-01-13T23:34:09.265Z,43.60
2018-01-13T23:36:37.411Z,21.37
2018-01-13T23:39:05.589Z,29.53
2018-01-13T23:41:33.637Z,29.93
2018-01-13T23:44:01.689Z,33.37
2018-01-13T23:46:29.754Z,27.93
2018-01-13T23:48:57.856Z,30.43
2018-01-13T23:51:25.905Z,28.17
2018-01-13T23:53:54.326Z,21.03
2018-01-13T23:56:22.397Z,30.17
2018-01-13T23:58:50.469Z,28.07
